sensor_id;sensor_type;location;lat;lon;timestamp;P1;durP1;ratioP1;P2;durP2;ratioP2
22254;SDS011;11296;42.684;23.322;2023-02-26T00:02:00;12.63;;;4.43;;
22254;SDS011;11296;42.684;23.322;2023-02-26T00:04:28;13.90;;;4.30;;
22254;SDS011;11296;42.684;23.322;2023-02-26T00:06:54;10.93;;;3.67;;
22254;SDS011;11296;42.684;23.322;2023-02-26T00:09:20;11.57;;;4.00;;
22254;SDS011;11296;42.684;23.322;2023-02-26T00:11:47;13.50;;;3.67;;
22254;SDS011;11296;42.684;23.322;2023-02-26T00:14:13;15.67;;;3.97;;
22254;SDS011;11296;42.684;23.322;2023-02-26T00:16:39;12.53;;;3.90;;
22254;SDS011;11296;42.684;23.322;2023-02-26T00:19:05;11.33;;;4.13;;
22254;SDS011;11296;42.684;23.322;2023-02-26T00:21:32;12.47;;;4.10;;
22254;SDS011;11296;42.684;23.322;2023-02-26T00:23:58;13.73;;;4.30;;
22254;SDS011;11296;42.684;23.322;2023-02-26T00:26:24;11.67;;;3.80;;
22254;SDS011;11296;42.684;23.322;2023-02-26T00:28:50;10.57;;;3.93;;
22254;SDS011;11296;42.684;23.322;2023-02-26T00:31:16;13.10;;;3.60;;
22254;SDS011;11296;42.684;23.322;2023-02-26T00:33:43;9.20;;;3.20;;
22254;SDS011;11296;42.684;23.322;2023-02-26T00:36:19;14.97;;;3.70;;
22254;SDS011;11296;42.684;23.322;2023-02-26T00:38:46;11.17;;;3.83;;
22254;SDS011;11296;42.684;23.322;2023-02-26T00:41:16;9.63;;;3.67;;
22254;SDS011;11296;42.684;23.322;2023-02-26T00:43:41;9.30;;;3.90;;
22254;SDS011;11296;42.684;23.322;2023-02-26T00:48:58;9.27;;;3.80;;
22254;SDS011;11296;42.684;23.322;2023-02-26T00:51:35;11.97;;;4.20;;
22254;SDS011;11296;42.684;23.322;2023-02-26T00:56:34;13.60;;;3.60;;
22254;SDS011;11296;42.684;23.322;2023-02-26T00:58:59;12.07;;;3.77;;
22254;SDS011;11296;42.684;23.322;2023-02-26T01:01:25;9.80;;;3.43;;
22254;SDS011;11296;42.684;23.322;2023-02-26T01:03:50;13.07;;;4.23;;
22254;SDS011;11296;42.684;23.322;2023-02-26T01:06:17;8.37;;;2.87;;
22254;SDS011;11296;42.684;23.322;2023-02-26T01:08:58;11.57;;;3.60;;
22254;SDS011;11296;42.684;23.322;2023-02-26T01:14:10;11.83;;;3.53;;
22254;SDS011;11296;42.684;23.322;2023-02-26T01:16:47;10.17;;;3.67;;
22254;SDS011;11296;42.684;23.322;2023-02-26T01:19:28;14.90;;;3.10;;
22254;SDS011;11296;42.684;23.322;2023-02-26T01:22:12;9.37;;;3.33;;
22254;SDS011;11296;42.684;23.322;2023-02-26T01:24:39;9.60;;;3.17;;
22254;SDS011;11296;42.684;23.322;2023-02-26T01:27:06;10.80;;;3.27;;
22254;SDS011;11296;42.684;23.322;2023-02-26T01:29:32;10.90;;;3.10;;
22254;SDS011;11296;42.684;23.322;2023-02-26T01:34:52;10.43;;;3.23;;
22254;SDS011;11296;42.684;23.322;2023-02-26T01:37:20;12.13;;;3.40;;
22254;SDS011;11296;42.684;23.322;2023-02-26T01:42:34;12.77;;;4.17;;
22254;SDS011;11296;42.684;23.322;2023-02-26T01:45:09;10.07;;;3.60;;
22254;SDS011;11296;42.684;23.322;2023-02-26T01:47:48;12.73;;;3.97;;
22254;SDS011;11296;42.684;23.322;2023-02-26T01:50:17;9.47;;;3.40;;
22254;SDS011;11296;42.684;23.322;2023-02-26T01:55:12;9.27;;;3.20;;
22254;SDS011;11296;42.684;23.322;2023-02-26T01:57:38;12.73;;;4.60;;
22254;SDS011;11296;42.684;23.322;2023-02-26T02:00:07;8.97;;;3.30;;
22254;SDS011;11296;42.684;23.322;2023-02-26T02:02:37;9.43;;;3.60;;
22254;SDS011;11296;42.684;23.322;2023-02-26T02:05:16;10.03;;;3.73;;
22254;SDS011;11296;42.684;23.322;2023-02-26T02:07:45;9.87;;;3.53;;
22254;SDS011;11296;42.684;23.322;2023-02-26T02:10:11;10.47;;;3.50;;
22254;SDS011;11296;42.684;23.322;2023-02-26T02:12:37;9.37;;;3.30;;
22254;SDS011;11296;42.684;23.322;2023-02-26T02:15:10;9.80;;;3.27;;
22254;SDS011;11296;42.684;23.322;2023-02-26T02:23:07;10.47;;;2.90;;
22254;SDS011;11296;42.684;23.322;2023-02-26T02:30:54;8.80;;;2.87;;
22254;SDS011;11296;42.684;23.322;2023-02-26T02:33:21;9.10;;;3.00;;
22254;SDS011;11296;42.684;23.322;2023-02-26T02:35:55;10.03;;;3.30;;
22254;SDS011;11296;42.684;23.322;2023-02-26T02:38:26;14.10;;;3.17;;
22254;SDS011;11296;42.684;23.322;2023-02-26T02:40:57;11.17;;;3.23;;
22254;SDS011;11296;42.684;23.322;2023-02-26T02:43:27;11.77;;;3.40;;
22254;SDS011;11296;42.684;23.322;2023-02-26T02:46:04;10.23;;;3.40;;
22254;SDS011;11296;42.684;23.322;2023-02-26T02:51:03;7.73;;;2.77;;
22254;SDS011;11296;42.684;23.322;2023-02-26T02:53:35;7.80;;;2.70;;
22254;SDS011;11296;42.684;23.322;2023-02-26T02:56:03;11.40;;;3.67;;
22254;SDS011;11296;42.684;23.322;2023-02-26T02:58:33;9.87;;;3.90;;
22254;SDS011;11296;42.684;23.322;2023-02-26T03:01:01;11.13;;;3.63;;
22254;SDS011;11296;42.684;23.322;2023-02-26T03:06:13;9.07;;;2.97;;
22254;SDS011;11296;42.684;23.322;2023-02-26T03:08:40;9.63;;;2.77;;
22254;SDS011;11296;42.684;23.322;2023-02-26T03:11:07;10.20;;;3.40;;
22254;SDS011;11296;42.684;23.322;2023-02-26T03:13:34;11.27;;;3.00;;
22254;SDS011;11296;42.684;23.322;2023-02-26T03:16:12;11.20;;;3.03;;
22254;SDS011;11296;42.684;23.322;2023-02-26T03:26:32;14.47;;;3.13;;
22254;SDS011;11296;42.684;23.322;2023-02-26T03:29:13;8.87;;;2.83;;
22254;SDS011;11296;42.684;23.322;2023-02-26T03:31:44;9.80;;;3.37;;
22254;SDS011;11296;42.684;23.322;2023-02-26T03:36:47;9.40;;;2.80;;
22254;SDS011;11296;42.684;23.322;2023-02-26T03:39:26;11.37;;;3.00;;
22254;SDS011;11296;42.684;23.322;2023-02-26T03:41:55;9.27;;;4.03;;
22254;SDS011;11296;42.684;23.322;2023-02-26T03:44:27;8.63;;;2.90;;
22254;SDS011;11296;42.684;23.322;2023-02-26T03:46:58;11.83;;;3.30;;
22254;SDS011;11296;42.684;23.322;2023-02-26T03:49:28;9.07;;;2.97;;
22254;SDS011;11296;42.684;23.322;2023-02-26T03:51:56;11.03;;;2.17;;
22254;SDS011;11296;42.684;23.322;2023-02-26T03:54:47;10.03;;;2.93;;
22254;SDS011;11296;42.684;23.322;2023-02-26T03:57:43;10.37;;;3.03;;
22254;SDS011;11296;42.684;23.322;2023-02-26T04:00:32;9.17;;;2.87;;
22254;SDS011;11296;42.684;23.322;2023-02-26T04:03:00;8.70;;;2.93;;
22254;SDS011;11296;42.684;23.322;2023-02-26T04:05:34;19.83;;;3.50;;
22254;SDS011;11296;42.684;23.322;2023-02-26T04:08:00;13.83;;;3.53;;
22254;SDS011;11296;42.684;23.322;2023-02-26T04:10:38;8.97;;;2.87;;
22254;SDS011;11296;42.684;23.322;2023-02-26T04:13:04;13.87;;;3.00;;
22254;SDS011;11296;42.684;23.322;2023-02-26T04:15:30;12.87;;;3.13;;
22254;SDS011;11296;42.684;23.322;2023-02-26T04:17:55;17.03;;;3.30;;
22254;SDS011;11296;42.684;23.322;2023-02-26T04:20:21;12.90;;;3.57;;
22254;SDS011;11296;42.684;23.322;2023-02-26T04:22:46;14.70;;;3.30;;
22254;SDS011;11296;42.684;23.322;2023-02-26T04:25:12;11.93;;;3.20;;
22254;SDS011;11296;42.684;23.322;2023-02-26T04:27:38;11.50;;;3.10;;
22254;SDS011;11296;42.684;23.322;2023-02-26T04:30:03;13.90;;;3.30;;
22254;SDS011;11296;42.684;23.322;2023-02-26T04:32:30;11.33;;;3.20;;
22254;SDS011;11296;42.684;23.322;2023-02-26T04:34:56;10.63;;;2.80;;
22254;SDS011;11296;42.684;23.322;2023-02-26T04:37:22;10.10;;;2.70;;
22254;SDS011;11296;42.684;23.322;2023-02-26T04:39:48;12.93;;;3.40;;
22254;SDS011;11296;42.684;23.322;2023-02-26T04:42:13;14.70;;;3.40;;
22254;SDS011;11296;42.684;23.322;2023-02-26T04:44:39;11.23;;;3.47;;
22254;SDS011;11296;42.684;23.322;2023-02-26T04:47:05;11.60;;;3.53;;
22254;SDS011;11296;42.684;23.322;2023-02-26T04:49:32;11.80;;;3.20;;
22254;SDS011;11296;42.684;23.322;2023-02-26T04:51:59;14.00;;;3.00;;
22254;SDS011;11296;42.684;23.322;2023-02-26T04:54:24;10.67;;;3.50;;
22254;SDS011;11296;42.684;23.322;2023-02-26T04:56:50;13.87;;;3.47;;
22254;SDS011;11296;42.684;23.322;2023-02-26T04:59:15;11.20;;;3.03;;
22254;SDS011;11296;42.684;23.322;2023-02-26T05:01:41;9.13;;;3.40;;
22254;SDS011;11296;42.684;23.322;2023-02-26T05:04:07;8.70;;;2.93;;
22254;SDS011;11296;42.684;23.322;2023-02-26T05:06:32;14.83;;;3.83;;
22254;SDS011;11296;42.684;23.322;2023-02-26T05:08:58;18.13;;;2.87;;
22254;SDS011;11296;42.684;23.322;2023-02-26T05:11:24;12.47;;;2.87;;
22254;SDS011;11296;42.684;23.322;2023-02-26T05:13:49;11.57;;;2.60;;
22254;SDS011;11296;42.684;23.322;2023-02-26T05:16:15;13.60;;;2.97;;
22254;SDS011;11296;42.684;23.322;2023-02-26T05:18:41;7.07;;;2.60;;
22254;SDS011;11296;42.684;23.322;2023-02-26T05:21:07;11.27;;;2.97;;
22254;SDS011;11296;42.684;23.322;2023-02-26T05:23:32;16.43;;;3.80;;
22254;SDS011;11296;42.684;23.322;2023-02-26T05:25:58;13.63;;;3.20;;
22254;SDS011;11296;42.684;23.322;2023-02-26T05:28:24;12.70;;;2.77;;
22254;SDS011;11296;42.684;23.322;2023-02-26T05:30:50;10.87;;;2.90;;
22254;SDS011;11296;42.684;23.322;2023-02-26T05:33:17;13.40;;;4.00;;
22254;SDS011;11296;42.684;23.322;2023-02-26T05:35:42;15.87;;;3.23;;
22254;SDS011;11296;42.684;23.322;2023-02-26T05:38:07;17.60;;;2.80;;
22254;SDS011;11296;42.684;23.322;2023-02-26T05:40:33;14.37;;;3.20;;
22254;SDS011;11296;42.684;23.322;2023-02-26T05:42:58;14.97;;;3.10;;
22254;SDS011;11296;42.684;23.322;2023-02-26T05:45:24;14.07;;;2.70;;
22254;SDS011;11296;42.684;23.322;2023-02-26T05:47:49;11.20;;;4.30;;
22254;SDS011;11296;42.684;23.322;2023-02-26T05:50:15;13.10;;;3.57;;
22254;SDS011;11296;42.684;23.322;2023-02-26T05:52:40;9.13;;;2.37;;
22254;SDS011;11296;42.684;23.322;2023-02-26T05:55:06;6.87;;;2.03;;
22254;SDS011;11296;42.684;23.322;2023-02-26T05:57:32;15.13;;;3.70;;
22254;SDS011;11296;42.684;23.322;2023-02-26T05:59:57;14.27;;;2.80;;
22254;SDS011;11296;42.684;23.322;2023-02-26T06:02:23;12.33;;;2.50;;
22254;SDS011;11296;42.684;23.322;2023-02-26T06:04:56;16.40;;;3.33;;
22254;SDS011;11296;42.684;23.322;2023-02-26T06:07:22;17.10;;;3.20;;
22254;SDS011;11296;42.684;23.322;2023-02-26T06:09:48;9.77;;;2.93;;
22254;SDS011;11296;42.684;23.322;2023-02-26T06:16:17;15.27;;;3.27;;
22254;SDS011;11296;42.684;23.322;2023-02-26T06:18:45;14.80;;;4.23;;
22254;SDS011;11296;42.684;23.322;2023-02-26T06:24:00;12.80;;;3.33;;
22254;SDS011;11296;42.684;23.322;2023-02-26T06:26:33;16.60;;;2.87;;
22254;SDS011;11296;42.684;23.322;2023-02-26T06:28:58;13.93;;;2.60;;
22254;SDS011;11296;42.684;23.322;2023-02-26T06:31:32;11.17;;;2.53;;
22254;SDS011;11296;42.684;23.322;2023-02-26T06:34:22;12.93;;;2.73;;
22254;SDS011;11296;42.684;23.322;2023-02-26T06:36:48;12.63;;;2.93;;
22254;SDS011;11296;42.684;23.322;2023-02-26T06:39:13;12.93;;;2.07;;
22254;SDS011;11296;42.684;23.322;2023-02-26T06:41:39;16.97;;;2.80;;
22254;SDS011;11296;42.684;23.322;2023-02-26T06:44:04;11.90;;;2.87;;
22254;SDS011;11296;42.684;23.322;2023-02-26T06:46:30;16.33;;;3.23;;
22254;SDS011;11296;42.684;23.322;2023-02-26T06:48:56;14.63;;;2.43;;
22254;SDS011;11296;42.684;23.322;2023-02-26T06:51:27;14.27;;;2.90;;
22254;SDS011;11296;42.684;23.322;2023-02-26T06:53:53;8.63;;;2.63;;
22254;SDS011;11296;42.684;23.322;2023-02-26T06:56:19;10.13;;;2.40;;
22254;SDS011;11296;42.684;23.322;2023-02-26T06:58:44;13.83;;;2.97;;
22254;SDS011;11296;42.684;23.322;2023-02-26T07:01:09;13.10;;;3.10;;
22254;SDS011;11296;42.684;23.322;2023-02-26T07:03:35;22.27;;;3.60;;
22254;SDS011;11296;42.684;23.322;2023-02-26T07:06:00;10.43;;;2.80;;
22254;SDS011;11296;42.684;23.322;2023-02-26T07:08:26;12.97;;;2.50;;
22254;SDS011;11296;42.684;23.322;2023-02-26T07:10:51;16.87;;;2.70;;
22254;SDS011;11296;42.684;23.322;2023-02-26T07:13:17;21.03;;;3.13;;
22254;SDS011;11296;42.684;23.322;2023-02-26T07:15:43;16.27;;;3.13;;
22254;SDS011;11296;42.684;23.322;2023-02-26T07:18:08;13.63;;;3.20;;
22254;SDS011;11296;42.684;23.322;2023-02-26T07:20:34;12.70;;;3.10;;
22254;SDS011;11296;42.684;23.322;2023-02-26T07:22:59;12.53;;;3.47;;
22254;SDS011;11296;42.684;23.322;2023-02-26T07:25:25;10.23;;;3.10;;
22254;SDS011;11296;42.684;23.322;2023-02-26T07:27:54;11.17;;;2.73;;
22254;SDS011;11296;42.684;23.322;2023-02-26T07:30:20;14.10;;;2.70;;
22254;SDS011;11296;42.684;23.322;2023-02-26T07:32:46;12.53;;;2.67;;
22254;SDS011;11296;42.684;23.322;2023-02-26T07:35:11;13.10;;;3.67;;
22254;SDS011;11296;42.684;23.322;2023-02-26T07:37:37;16.17;;;3.37;;
22254;SDS011;11296;42.684;23.322;2023-02-26T07:40:03;12.37;;;3.13;;
22254;SDS011;11296;42.684;23.322;2023-02-26T07:42:30;15.13;;;2.80;;
22254;SDS011;11296;42.684;23.322;2023-02-26T07:44:56;18.30;;;2.97;;
22254;SDS011;11296;42.684;23.322;2023-02-26T07:47:22;12.17;;;2.77;;
22254;SDS011;11296;42.684;23.322;2023-02-26T07:49:47;14.00;;;3.37;;
22254;SDS011;11296;42.684;23.322;2023-02-26T07:52:13;9.63;;;2.90;;
22254;SDS011;11296;42.684;23.322;2023-02-26T07:54:40;16.10;;;3.23;;
22254;SDS011;11296;42.684;23.322;2023-02-26T07:57:05;12.43;;;3.10;;
22254;SDS011;11296;42.684;23.322;2023-02-26T07:59:31;8.53;;;2.37;;
22254;SDS011;11296;42.684;23.322;2023-02-26T08:01:56;13.90;;;3.43;;
22254;SDS011;11296;42.684;23.322;2023-02-26T08:04:23;18.00;;;3.27;;
22254;SDS011;11296;42.684;23.322;2023-02-26T08:06:48;12.00;;;3.03;;
22254;SDS011;11296;42.684;23.322;2023-02-26T08:09:14;13.27;;;2.80;;
22254;SDS011;11296;42.684;23.322;2023-02-26T08:11:39;12.23;;;2.57;;
22254;SDS011;11296;42.684;23.322;2023-02-26T08:14:07;11.20;;;2.73;;
22254;SDS011;11296;42.684;23.322;2023-02-26T08:16:33;11.80;;;2.70;;
22254;SDS011;11296;42.684;23.322;2023-02-26T08:18:59;8.00;;;2.60;;
22254;SDS011;11296;42.684;23.322;2023-02-26T08:21:25;16.73;;;3.10;;
22254;SDS011;11296;42.684;23.322;2023-02-26T08:23:50;12.63;;;2.87;;
22254;SDS011;11296;42.684;23.322;2023-02-26T08:26:16;12.37;;;2.73;;
22254;SDS011;11296;42.684;23.322;2023-02-26T08:28:43;9.17;;;2.43;;
22254;SDS011;11296;42.684;23.322;2023-02-26T08:31:10;11.60;;;3.13;;
22254;SDS011;11296;42.684;23.322;2023-02-26T08:33:36;10.97;;;3.07;;
22254;SDS011;11296;42.684;23.322;2023-02-26T08:36:01;15.30;;;3.07;;
22254;SDS011;11296;42.684;23.322;2023-02-26T08:38:27;16.50;;;3.07;;
22254;SDS011;11296;42.684;23.322;2023-02-26T08:40:53;16.37;;;3.17;;
22254;SDS011;11296;42.684;23.322;2023-02-26T08:43:19;17.10;;;3.30;;
22254;SDS011;11296;42.684;23.322;2023-02-26T08:45:44;12.17;;;3.60;;
22254;SDS011;11296;42.684;23.322;2023-02-26T08:48:10;16.73;;;5.33;;
22254;SDS011;11296;42.684;23.322;2023-02-26T08:50:35;16.97;;;4.67;;
22254;SDS011;11296;42.684;23.322;2023-02-26T08:53:01;10.33;;;2.53;;
22254;SDS011;11296;42.684;23.322;2023-02-26T08:55:27;18.07;;;3.93;;
22254;SDS011;11296;42.684;23.322;2023-02-26T08:57:54;18.10;;;4.37;;
22254;SDS011;11296;42.684;23.322;2023-02-26T09:00:19;23.60;;;5.77;;
22254;SDS011;11296;42.684;23.322;2023-02-26T09:02:46;18.73;;;4.27;;
22254;SDS011;11296;42.684;23.322;2023-02-26T09:05:11;15.17;;;3.43;;
22254;SDS011;11296;42.684;23.322;2023-02-26T09:07:37;16.00;;;3.77;;
22254;SDS011;11296;42.684;23.322;2023-02-26T09:10:04;14.07;;;2.90;;
22254;SDS011;11296;42.684;23.322;2023-02-26T09:12:29;16.80;;;3.57;;
22254;SDS011;11296;42.684;23.322;2023-02-26T09:14:55;14.63;;;3.33;;
22254;SDS011;11296;42.684;23.322;2023-02-26T09:17:24;15.93;;;3.43;;
22254;SDS011;11296;42.684;23.322;2023-02-26T09:19:49;15.73;;;3.10;;
22254;SDS011;11296;42.684;23.322;2023-02-26T09:22:15;12.87;;;3.20;;
22254;SDS011;11296;42.684;23.322;2023-02-26T09:24:41;12.97;;;3.33;;
22254;SDS011;11296;42.684;23.322;2023-02-26T09:27:07;12.97;;;3.13;;
22254;SDS011;11296;42.684;23.322;2023-02-26T09:29:32;22.97;;;7.30;;
22254;SDS011;11296;42.684;23.322;2023-02-26T09:31:58;19.50;;;3.70;;
22254;SDS011;11296;42.684;23.322;2023-02-26T09:34:23;18.40;;;3.63;;
22254;SDS011;11296;42.684;23.322;2023-02-26T09:36:49;14.30;;;3.37;;
22254;SDS011;11296;42.684;23.322;2023-02-26T09:39:14;15.40;;;5.50;;
22254;SDS011;11296;42.684;23.322;2023-02-26T09:41:40;18.17;;;4.73;;
22254;SDS011;11296;42.684;23.322;2023-02-26T09:44:23;15.63;;;3.93;;
22254;SDS011;11296;42.684;23.322;2023-02-26T09:52:35;17.50;;;4.10;;
22254;SDS011;11296;42.684;23.322;2023-02-26T09:55:09;21.70;;;4.37;;
22254;SDS011;11296;42.684;23.322;2023-02-26T09:57:40;18.57;;;4.13;;
22254;SDS011;11296;42.684;23.322;2023-02-26T10:02:58;15.07;;;5.28;;
22254;SDS011;11296;42.684;23.322;2023-02-26T10:08:15;16.40;;;5.10;;
22254;SDS011;11296;42.684;23.322;2023-02-26T10:10:53;14.07;;;5.40;;
22254;SDS011;11296;42.684;23.322;2023-02-26T10:13:28;16.13;;;5.20;;
22254;SDS011;11296;42.684;23.322;2023-02-26T10:15:59;11.23;;;4.50;;
22254;SDS011;11296;42.684;23.322;2023-02-26T10:18:27;12.47;;;4.17;;
22254;SDS011;11296;42.684;23.322;2023-02-26T10:20:57;16.13;;;4.13;;
22254;SDS011;11296;42.684;23.322;2023-02-26T10:23:31;15.33;;;4.73;;
22254;SDS011;11296;42.684;23.322;2023-02-26T10:40:12;12.40;;;3.50;;
22254;SDS011;11296;42.684;23.322;2023-02-26T10:42:49;14.90;;;3.70;;
22254;SDS011;11296;42.684;23.322;2023-02-26T10:50:36;11.67;;;3.23;;
22254;SDS011;11296;42.684;23.322;2023-02-26T10:53:02;11.60;;;2.90;;
22254;SDS011;11296;42.684;23.322;2023-02-26T10:55:39;14.87;;;3.93;;
22254;SDS011;11296;42.684;23.322;2023-02-26T11:01:06;9.20;;;3.10;;
22254;SDS011;11296;42.684;23.322;2023-02-26T11:03:52;11.73;;;3.10;;
22254;SDS011;11296;42.684;23.322;2023-02-26T11:06:27;10.73;;;3.37;;
22254;SDS011;11296;42.684;23.322;2023-02-26T11:08:54;12.23;;;3.23;;
22254;SDS011;11296;42.684;23.322;2023-02-26T11:11:40;13.57;;;3.40;;
22254;SDS011;11296;42.684;23.322;2023-02-26T11:14:06;11.70;;;3.33;;
22254;SDS011;11296;42.684;23.322;2023-02-26T11:16:33;15.47;;;3.50;;
22254;SDS011;11296;42.684;23.322;2023-02-26T11:18:59;10.70;;;3.03;;
22254;SDS011;11296;42.684;23.322;2023-02-26T11:21:35;13.23;;;3.70;;
22254;SDS011;11296;42.684;23.322;2023-02-26T11:26:47;22.97;;;11.30;;
22254;SDS011;11296;42.684;23.322;2023-02-26T11:29:16;9.37;;;3.47;;
22254;SDS011;11296;42.684;23.322;2023-02-26T11:31:46;9.13;;;3.30;;
22254;SDS011;11296;42.684;23.322;2023-02-26T11:34:12;16.07;;;4.30;;
22254;SDS011;11296;42.684;23.322;2023-02-26T11:36:39;11.90;;;3.43;;
22254;SDS011;11296;42.684;23.322;2023-02-26T11:39:07;6.83;;;3.27;;
22254;SDS011;11296;42.684;23.322;2023-02-26T11:41:38;14.23;;;3.47;;
22254;SDS011;11296;42.684;23.322;2023-02-26T11:44:06;15.47;;;3.73;;
22254;SDS011;11296;42.684;23.322;2023-02-26T11:46:34;13.83;;;3.80;;
22254;SDS011;11296;42.684;23.322;2023-02-26T11:49:03;10.60;;;3.30;;
22254;SDS011;11296;42.684;23.322;2023-02-26T11:51:29;15.87;;;3.40;;
22254;SDS011;11296;42.684;23.322;2023-02-26T11:53:55;10.40;;;4.10;;
22254;SDS011;11296;42.684;23.322;2023-02-26T11:56:25;12.00;;;3.77;;
22254;SDS011;11296;42.684;23.322;2023-02-26T11:58:52;9.47;;;3.07;;
22254;SDS011;11296;42.684;23.322;2023-02-26T12:01:19;12.67;;;3.87;;
22254;SDS011;11296;42.684;23.322;2023-02-26T12:03:47;11.87;;;3.27;;
22254;SDS011;11296;42.684;23.322;2023-02-26T12:06:18;10.53;;;3.40;;
22254;SDS011;11296;42.684;23.322;2023-02-26T12:08:44;14.10;;;3.63;;
22254;SDS011;11296;42.684;23.322;2023-02-26T12:16:22;17.40;;;4.27;;
22254;SDS011;11296;42.684;23.322;2023-02-26T12:18:56;14.50;;;3.87;;
22254;SDS011;11296;42.684;23.322;2023-02-26T12:21:28;12.07;;;3.40;;
22254;SDS011;11296;42.684;23.322;2023-02-26T12:24:14;11.70;;;3.30;;
22254;SDS011;11296;42.684;23.322;2023-02-26T12:26:49;15.23;;;3.33;;
22254;SDS011;11296;42.684;23.322;2023-02-26T12:32:17;13.80;;;3.60;;
22254;SDS011;11296;42.684;23.322;2023-02-26T13:04:00;17.60;;;4.50;;
22254;SDS011;11296;42.684;23.322;2023-02-26T13:14:33;20.10;;;4.20;;
22254;SDS011;11296;42.684;23.322;2023-02-26T13:17:08;12.90;;;4.27;;
22254;SDS011;11296;42.684;23.322;2023-02-26T13:19:46;18.80;;;4.33;;
22254;SDS011;11296;42.684;23.322;2023-02-26T13:22:16;11.03;;;4.03;;
22254;SDS011;11296;42.684;23.322;2023-02-26T13:24:51;15.73;;;4.17;;
22254;SDS011;11296;42.684;23.322;2023-02-26T13:27:18;12.47;;;4.20;;
22254;SDS011;11296;42.684;23.322;2023-02-26T13:29:46;17.30;;;4.00;;
22254;SDS011;11296;42.684;23.322;2023-02-26T13:32:18;14.93;;;4.00;;
22254;SDS011;11296;42.684;23.322;2023-02-26T13:34:47;9.30;;;3.50;;
22254;SDS011;11296;42.684;23.322;2023-02-26T13:37:20;15.93;;;3.87;;
22254;SDS011;11296;42.684;23.322;2023-02-26T13:40:28;14.00;;;4.10;;
22254;SDS011;11296;42.684;23.322;2023-02-26T13:42:43;19.87;;;4.40;;
22254;SDS011;11296;42.684;23.322;2023-02-26T13:52:55;20.03;;;4.23;;
22254;SDS011;11296;42.684;23.322;2023-02-26T13:55:40;15.53;;;3.80;;
22254;SDS011;11296;42.684;23.322;2023-02-26T14:01:14;18.90;;;4.67;;
22254;SDS011;11296;42.684;23.322;2023-02-26T14:03:48;11.83;;;4.10;;
22254;SDS011;11296;42.684;23.322;2023-02-26T14:06:25;19.53;;;4.07;;
22254;SDS011;11296;42.684;23.322;2023-02-26T14:09:01;15.87;;;4.57;;
22254;SDS011;11296;42.684;23.322;2023-02-26T14:16:29;10.93;;;4.50;;
22254;SDS011;11296;42.684;23.322;2023-02-26T14:21:47;19.17;;;4.83;;
22254;SDS011;11296;42.684;23.322;2023-02-26T14:26:41;19.53;;;4.27;;
22254;SDS011;11296;42.684;23.322;2023-02-26T14:29:14;23.57;;;5.03;;
22254;SDS011;11296;42.684;23.322;2023-02-26T14:34:19;18.37;;;4.43;;
22254;SDS011;11296;42.684;23.322;2023-02-26T14:36:48;64.77;;;31.17;;
22254;SDS011;11296;42.684;23.322;2023-02-26T14:39:33;18.00;;;5.77;;
22254;SDS011;11296;42.684;23.322;2023-02-26T14:42:04;22.47;;;5.03;;
22254;SDS011;11296;42.684;23.322;2023-02-26T14:44:35;20.70;;;3.93;;
22254;SDS011;11296;42.684;23.322;2023-02-26T14:47:02;19.97;;;4.43;;
22254;SDS011;11296;42.684;23.322;2023-02-26T14:49:32;20.70;;;4.47;;
22254;SDS011;11296;42.684;23.322;2023-02-26T14:54:38;18.67;;;4.10;;
22254;SDS011;11296;42.684;23.322;2023-02-26T14:57:14;20.37;;;5.43;;
22254;SDS011;11296;42.684;23.322;2023-02-26T15:02:31;16.70;;;4.00;;
22254;SDS011;11296;42.684;23.322;2023-02-26T15:17:43;21.33;;;5.00;;
22254;SDS011;11296;42.684;23.322;2023-02-26T15:20:21;20.13;;;5.30;;
22254;SDS011;11296;42.684;23.322;2023-02-26T15:22:56;25.87;;;5.50;;
22254;SDS011;11296;42.684;23.322;2023-02-26T15:28:00;23.97;;;5.90;;
22254;SDS011;11296;42.684;23.322;2023-02-26T15:30:26;31.90;;;5.73;;
22254;SDS011;11296;42.684;23.322;2023-02-26T15:32:56;21.57;;;5.60;;
22254;SDS011;11296;42.684;23.322;2023-02-26T15:35:26;20.53;;;5.10;;
22254;SDS011;11296;42.684;23.322;2023-02-26T15:56:41;23.83;;;5.67;;
22254;SDS011;11296;42.684;23.322;2023-02-26T15:59:08;27.10;;;5.50;;
22254;SDS011;11296;42.684;23.322;2023-02-26T16:01:39;24.90;;;6.93;;
22254;SDS011;11296;42.684;23.322;2023-02-26T16:04:07;21.50;;;6.43;;
22254;SDS011;11296;42.684;23.322;2023-02-26T16:06:39;27.60;;;6.57;;
22254;SDS011;11296;42.684;23.322;2023-02-26T16:09:25;22.97;;;6.30;;
22254;SDS011;11296;42.684;23.322;2023-02-26T16:11:54;21.47;;;5.77;;
22254;SDS011;11296;42.684;23.322;2023-02-26T16:14:25;17.30;;;6.00;;
22254;SDS011;11296;42.684;23.322;2023-02-26T16:16:54;26.43;;;7.43;;
22254;SDS011;11296;42.684;23.322;2023-02-26T16:19:30;18.40;;;6.63;;
22254;SDS011;11296;42.684;23.322;2023-02-26T16:22:00;19.40;;;6.40;;
22254;SDS011;11296;42.684;23.322;2023-02-26T16:24:29;15.93;;;6.80;;
22254;SDS011;11296;42.684;23.322;2023-02-26T16:27:03;21.20;;;7.43;;
22254;SDS011;11296;42.684;23.322;2023-02-26T16:29:34;25.67;;;6.33;;
22254;SDS011;11296;42.684;23.322;2023-02-26T16:32:02;26.10;;;6.13;;
22254;SDS011;11296;42.684;23.322;2023-02-26T16:34:34;22.53;;;6.30;;
22254;SDS011;11296;42.684;23.322;2023-02-26T16:37:31;21.87;;;8.47;;
22254;SDS011;11296;42.684;23.322;2023-02-26T16:40:16;29.30;;;7.90;;
22254;SDS011;11296;42.684;23.322;2023-02-26T16:42:52;26.40;;;8.83;;
22254;SDS011;11296;42.684;23.322;2023-02-26T16:48:01;24.23;;;7.43;;
22254;SDS011;11296;42.684;23.322;2023-02-26T16:50:39;24.10;;;8.27;;
22254;SDS011;11296;42.684;23.322;2023-02-26T16:53:08;27.03;;;7.90;;
22254;SDS011;11296;42.684;23.322;2023-02-26T16:55:43;25.33;;;8.03;;
22254;SDS011;11296;42.684;23.322;2023-02-26T16:58:16;29.57;;;8.27;;
22254;SDS011;11296;42.684;23.322;2023-02-26T17:00:52;22.07;;;7.60;;
22254;SDS011;11296;42.684;23.322;2023-02-26T17:03:24;23.50;;;7.57;;
22254;SDS011;11296;42.684;23.322;2023-02-26T17:05:53;25.97;;;7.63;;
22254;SDS011;11296;42.684;23.322;2023-02-26T17:08:31;21.47;;;7.73;;
22254;SDS011;11296;42.684;23.322;2023-02-26T17:11:01;20.80;;;7.30;;
22254;SDS011;11296;42.684;23.322;2023-02-26T17:13:42;21.00;;;7.57;;
22254;SDS011;11296;42.684;23.322;2023-02-26T17:16:10;29.83;;;8.57;;
22254;SDS011;11296;42.684;23.322;2023-02-26T17:18:37;32.80;;;10.33;;
22254;SDS011;11296;42.684;23.322;2023-02-26T17:21:03;23.53;;;9.13;;
22254;SDS011;11296;42.684;23.322;2023-02-26T17:23:31;22.87;;;8.40;;
22254;SDS011;11296;42.684;23.322;2023-02-26T17:26:01;28.23;;;8.10;;
22254;SDS011;11296;42.684;23.322;2023-02-26T17:28:39;29.37;;;7.53;;
22254;SDS011;11296;42.684;23.322;2023-02-26T17:31:10;26.90;;;7.27;;
22254;SDS011;11296;42.684;23.322;2023-02-26T17:36:39;26.27;;;8.27;;
22254;SDS011;11296;42.684;23.322;2023-02-26T17:39:05;26.37;;;9.27;;
22254;SDS011;11296;42.684;23.322;2023-02-26T17:41:34;27.70;;;8.43;;
22254;SDS011;11296;42.684;23.322;2023-02-26T17:44:02;26.27;;;8.17;;
22254;SDS011;11296;42.684;23.322;2023-02-26T17:46:27;27.27;;;7.73;;
22254;SDS011;11296;42.684;23.322;2023-02-26T17:48:53;18.70;;;8.43;;
22254;SDS011;11296;42.684;23.322;2023-02-26T17:51:19;26.83;;;8.73;;
22254;SDS011;11296;42.684;23.322;2023-02-26T17:53:45;24.67;;;7.43;;
22254;SDS011;11296;42.684;23.322;2023-02-26T17:56:16;21.93;;;8.13;;